sensor_id;sensor_type;location;lat;lon;timestamp;pressure;altitude;pressure_sealevel;temperature;humidity
54600;BME280;40500;51.084;16.958;2023-04-29T00:01:57;99922.35;;;12.31;100.00
54600;BME280;40500;51.084;16.958;2023-04-29T00:04:28;99915.17;;;12.30;100.00
54600;BME280;40500;51.084;16.958;2023-04-29T00:06:59;99911.39;;;12.27;100.00
54600;BME280;40500;51.084;16.958;2023-04-29T00:09:29;99914.04;;;12.27;100.00
54600;BME280;40500;51.084;16.958;2023-04-29T00:11:59;99913.38;;;12.25;100.00
54600;BME280;40500;51.084;16.958;2023-04-29T00:14:30;99910.42;;;12.24;100.00
54600;BME280;40500;51.084;16.958;2023-04-29T00:17:01;99909.41;;;12.23;100.00
54600;BME280;40500;51.084;16.958;2023-04-29T00:19:31;99906.27;;;12.22;100.00
54600;BME280;40500;51.084;16.958;2023-04-29T00:22:02;99906.30;;;12.21;100.00
54600;BME280;40500;51.084;16.958;2023-04-29T00:24:32;99907.40;;;12.20;100.00
54600;BME280;40500;51.084;16.958;2023-04-29T00:27:03;99907.80;;;12.18;100.00
54600;BME280;40500;51.084;16.958;2023-04-29T00:29:33;99903.98;;;12.17;100.00
54600;BME280;40500;51.084;16.958;2023-04-29T00:32:05;99906.54;;;12.14;100.00
54600;BME280;40500;51.084;16.958;2023-04-29T00:34:36;99905.92;;;12.11;100.00
54600;BME280;40500;51.084;16.958;2023-04-29T00:37:06;99904.61;;;12.08;100.00
54600;BME280;40500;51.084;16.958;2023-04-29T00:39:37;99905.05;;;12.04;100.00
54600;BME280;40500;51.084;16.958;2023-04-29T00:42:08;99904.64;;;12.01;100.00
54600;BME280;40500;51.084;16.958;2023-04-29T00:44:39;99900.49;;;11.99;100.00
54600;BME280;40500;51.084;16.958;2023-04-29T00:47:10;99897.73;;;11.97;100.00
54600;BME280;40500;51.084;16.958;2023-04-29T00:49:40;99895.91;;;11.94;100.00
54600;BME280;40500;51.084;16.958;2023-04-29T00:52:12;99893.14;;;11.92;100.00
54600;BME280;40500;51.084;16.958;2023-04-29T00:54:43;99892.69;;;11.90;100.00
54600;BME280;40500;51.084;16.958;2023-04-29T00:57:14;99892.69;;;11.89;100.00
54600;BME280;40500;51.084;16.958;2023-04-29T00:59:45;99892.27;;;11.85;100.00
54600;BME280;40500;51.084;16.958;2023-04-29T01:02:17;99892.66;;;11.83;100.00
54600;BME280;40500;51.084;16.958;2023-04-29T01:04:48;99889.21;;;11.81;100.00
54600;BME280;40500;51.084;16.958;2023-04-29T01:07:25;99889.61;;;11.79;100.00
54600;BME280;40500;51.084;16.958;2023-04-29T01:10:05;99890.73;;;11.77;100.00
54600;BME280;40500;51.084;16.958;2023-04-29T01:12:47;99890.61;;;11.75;100.00
54600;BME280;40500;51.084;16.958;2023-04-29T01:15:25;99888.77;;;11.73;100.00
54600;BME280;40500;51.084;16.958;2023-04-29T01:18:04;99886.16;;;11.72;100.00
54600;BME280;40500;51.084;16.958;2023-04-29T01:20:41;99883.56;;;11.70;100.00
54600;BME280;40500;51.084;16.958;2023-04-29T01:23:13;99886.09;;;11.68;100.00
54600;BME280;40500;51.084;16.958;2023-04-29T01:25:43;99882.47;;;11.66;100.00
54600;BME280;40500;51.084;16.958;2023-04-29T01:28:37;99881.80;;;11.64;100.00
54600;BME280;40500;51.084;16.958;2023-04-29T01:31:14;99883.61;;;11.63;100.00
54600;BME280;40500;51.084;16.958;2023-04-29T01:33:50;99888.22;;;11.61;100.00
54600;BME280;40500;51.084;16.958;2023-04-29T01:36:29;99888.61;;;11.60;100.00
54600;BME280;40500;51.084;16.958;2023-04-29T01:39:02;99888.61;;;11.59;100.00
54600;BME280;40500;51.084;16.958;2023-04-29T01:41:43;99888.70;;;11.57;100.00
54600;BME280;40500;51.084;16.958;2023-04-29T01:44:26;99892.42;;;11.55;100.00
54600;BME280;40500;51.084;16.958;2023-04-29T01:46:59;99886.35;;;11.53;100.00
54600;BME280;40500;51.084;16.958;2023-04-29T01:49:37;99891.33;;;11.50;100.00
54600;BME280;40500;51.084;16.958;2023-04-29T01:52:08;99892.80;;;11.47;100.00
54600;BME280;40500;51.084;16.958;2023-04-29T01:54:40;99893.55;;;11.45;100.00
54600;BME280;40500;51.084;16.958;2023-04-29T01:57:10;99888.70;;;11.43;100.00
54600;BME280;40500;51.084;16.958;2023-04-29T01:59:53;99889.06;;;11.42;100.00
54600;BME280;40500;51.084;16.958;2023-04-29T02:02:41;99887.58;;;11.40;100.00
54600;BME280;40500;51.084;16.958;2023-04-29T02:05:41;99887.52;;;11.35;100.00
54600;BME280;40500;51.084;16.958;2023-04-29T02:08:11;99886.74;;;11.32;100.00
54600;BME280;40500;51.084;16.958;2023-04-29T02:10:52;99883.73;;;11.26;100.00
54600;BME280;40500;51.084;16.958;2023-04-29T02:13:32;99881.89;;;11.23;100.00
54600;BME280;40500;51.084;16.958;2023-04-29T02:16:09;99883.39;;;11.20;100.00
54600;BME280;40500;51.084;16.958;2023-04-29T02:18:44;99879.80;;;11.16;100.00
54600;BME280;40500;51.084;16.958;2023-04-29T02:21:14;99883.02;;;11.13;100.00
54600;BME280;40500;51.084;16.958;2023-04-29T02:23:45;99881.00;;;11.11;100.00
54600;BME280;40500;51.084;16.958;2023-04-29T02:26:15;99882.46;;;11.08;100.00
54600;BME280;40500;51.084;16.958;2023-04-29T02:28:46;99881.64;;;11.07;100.00
54600;BME280;40500;51.084;16.958;2023-04-29T02:31:16;99877.66;;;11.04;100.00
54600;BME280;40500;51.084;16.958;2023-04-29T02:33:49;99878.75;;;11.02;100.00
54600;BME280;40500;51.084;16.958;2023-04-29T02:36:19;99877.23;;;11.00;100.00
54600;BME280;40500;51.084;16.958;2023-04-29T02:38:52;99870.63;;;10.98;100.00
54600;BME280;40500;51.084;16.958;2023-04-29T02:41:24;99872.08;;;10.97;100.00
54600;BME280;40500;51.084;16.958;2023-04-29T02:43:54;99869.29;;;10.96;100.00
54600;BME280;40500;51.084;16.958;2023-04-29T02:46:25;99874.96;;;10.93;100.00
54600;BME280;40500;51.084;16.958;2023-04-29T02:48:56;99872.58;;;10.91;100.00
54600;BME280;40500;51.084;16.958;2023-04-29T02:51:26;99873.70;;;10.88;100.00
54600;BME280;40500;51.084;16.958;2023-04-29T02:53:57;99873.05;;;10.86;100.00
54600;BME280;40500;51.084;16.958;2023-04-29T02:56:27;99869.41;;;10.84;100.00
54600;BME280;40500;51.084;16.958;2023-04-29T02:58:58;99866.52;;;10.81;100.00
54600;BME280;40500;51.084;16.958;2023-04-29T03:01:28;99862.77;;;10.77;100.00
54600;BME280;40500;51.084;16.958;2023-04-29T03:03:59;99864.64;;;10.73;100.00
54600;BME280;40500;51.084;16.958;2023-04-29T03:06:30;99863.17;;;10.68;100.00
54600;BME280;40500;51.084;16.958;2023-04-29T03:09:01;99859.83;;;10.62;100.00
54600;BME280;40500;51.084;16.958;2023-04-29T03:11:32;99856.44;;;10.57;100.00
54600;BME280;40500;51.084;16.958;2023-04-29T03:14:02;99855.15;;;10.53;100.00
54600;BME280;40500;51.084;16.958;2023-04-29T03:16:33;99852.84;;;10.46;100.00
54600;BME280;40500;51.084;16.958;2023-04-29T03:19:03;99854.02;;;10.42;100.00
54600;BME280;40500;51.084;16.958;2023-04-29T03:21:34;99849.97;;;10.35;100.00
54600;BME280;40500;51.084;16.958;2023-04-29T03:24:06;99849.94;;;10.28;100.00
54600;BME280;40500;51.084;16.958;2023-04-29T03:26:37;99846.60;;;10.21;100.00
54600;BME280;40500;51.084;16.958;2023-04-29T03:29:07;99844.63;;;10.15;100.00
54600;BME280;40500;51.084;16.958;2023-04-29T03:31:38;99845.13;;;10.09;100.00
54600;BME280;40500;51.084;16.958;2023-04-29T03:34:10;99839.31;;;10.03;100.00
54600;BME280;40500;51.084;16.958;2023-04-29T03:36:41;99839.75;;;9.99;100.00
54600;BME280;40500;51.084;16.958;2023-04-29T03:39:12;99838.09;;;9.95;100.00
54600;BME280;40500;51.084;16.958;2023-04-29T03:41:44;99831.91;;;9.89;100.00
54600;BME280;40500;51.084;16.958;2023-04-29T03:44:16;99835.28;;;9.87;100.00
54600;BME280;40500;51.084;16.958;2023-04-29T03:46:46;99833.03;;;9.86;100.00
54600;BME280;40500;51.084;16.958;2023-04-29T03:49:17;99832.70;;;9.85;100.00
54600;BME280;40500;51.084;16.958;2023-04-29T03:51:48;99829.77;;;9.84;100.00
54600;BME280;40500;51.084;16.958;2023-04-29T03:54:19;99821.12;;;9.80;100.00
54600;BME280;40500;51.084;16.958;2023-04-29T03:56:49;99825.38;;;9.77;100.00
54600;BME280;40500;51.084;16.958;2023-04-29T03:59:20;99833.66;;;9.74;100.00
54600;BME280;40500;51.084;16.958;2023-04-29T04:01:51;99848.55;;;9.72;100.00
54600;BME280;40500;51.084;16.958;2023-04-29T04:04:22;99853.98;;;9.71;100.00
54600;BME280;40500;51.084;16.958;2023-04-29T04:06:53;99854.33;;;9.72;100.00
54600;BME280;40500;51.084;16.958;2023-04-29T04:09:26;99857.28;;;9.73;100.00
54600;BME280;40500;51.084;16.958;2023-04-29T04:11:57;99860.73;;;9.76;100.00
54600;BME280;40500;51.084;16.958;2023-04-29T04:14:29;99860.28;;;9.80;100.00
54600;BME280;40500;51.084;16.958;2023-04-29T04:17:00;99856.53;;;9.83;100.00
54600;BME280;40500;51.084;16.958;2023-04-29T04:19:31;99855.46;;;9.85;100.00
54600;BME280;40500;51.084;16.958;2023-04-29T04:22:03;99855.02;;;9.88;100.00
54600;BME280;40500;51.084;16.958;2023-04-29T04:24:33;99855.48;;;9.92;100.00
54600;BME280;40500;51.084;16.958;2023-04-29T04:27:05;99849.98;;;9.95;100.00
54600;BME280;40500;51.084;16.958;2023-04-29T04:29:39;99850.95;;;9.99;100.00
54600;BME280;40500;51.084;16.958;2023-04-29T04:32:17;99853.11;;;10.04;100.00
54600;BME280;40500;51.084;16.958;2023-04-29T04:34:48;99850.86;;;10.10;100.00
54600;BME280;40500;51.084;16.958;2023-04-29T04:37:18;99846.84;;;10.18;100.00
54600;BME280;40500;51.084;16.958;2023-04-29T04:39:52;99839.44;;;10.28;100.00
54600;BME280;40500;51.084;16.958;2023-04-29T04:42:23;99835.11;;;10.42;100.00
54600;BME280;40500;51.084;16.958;2023-04-29T04:44:55;99831.13;;;10.54;100.00
54600;BME280;40500;51.084;16.958;2023-04-29T04:47:51;99827.63;;;10.68;100.00
54600;BME280;40500;51.084;16.958;2023-04-29T04:50:26;99823.67;;;10.79;100.00
54600;BME280;40500;51.084;16.958;2023-04-29T04:52:56;99823.09;;;10.81;100.00
54600;BME280;40500;51.084;16.958;2023-04-29T04:55:42;99821.65;;;10.82;100.00
54600;BME280;40500;51.084;16.958;2023-04-29T04:58:12;99821.81;;;10.83;100.00
54600;BME280;40500;51.084;16.958;2023-04-29T05:00:45;99833.52;;;10.84;100.00
54600;BME280;40500;51.084;16.958;2023-04-29T05:03:15;99841.00;;;10.86;100.00
54600;BME280;40500;51.084;16.958;2023-04-29T05:05:46;99841.29;;;10.88;100.00
54600;BME280;40500;51.084;16.958;2023-04-29T05:08:22;99843.33;;;10.90;100.00
54600;BME280;40500;51.084;16.958;2023-04-29T05:10:54;99839.05;;;10.94;100.00
54600;BME280;40500;51.084;16.958;2023-04-29T05:13:25;99836.69;;;10.97;100.00
54600;BME280;40500;51.084;16.958;2023-04-29T05:15:55;99838.88;;;11.00;100.00
54600;BME280;40500;51.084;16.958;2023-04-29T05:18:28;99843.34;;;11.04;100.00
54600;BME280;40500;51.084;16.958;2023-04-29T05:21:00;99837.40;;;11.10;100.00
54600;BME280;40500;51.084;16.958;2023-04-29T05:23:31;99840.20;;;11.16;100.00
54600;BME280;40500;51.084;16.958;2023-04-29T05:26:01;99837.52;;;11.24;100.00
54600;BME280;40500;51.084;16.958;2023-04-29T05:28:32;99840.70;;;11.30;100.00
54600;BME280;40500;51.084;16.958;2023-04-29T05:31:02;99837.91;;;11.35;100.00
54600;BME280;40500;51.084;16.958;2023-04-29T05:33:34;99840.54;;;11.42;100.00
54600;BME280;40500;51.084;16.958;2023-04-29T05:36:05;99841.27;;;11.53;100.00
54600;BME280;40500;51.084;16.958;2023-04-29T05:38:36;99846.84;;;11.67;100.00
54600;BME280;40500;51.084;16.958;2023-04-29T05:41:09;99844.96;;;11.82;100.00
54600;BME280;40500;51.084;16.958;2023-04-29T05:44:01;99848.41;;;11.98;100.00
54600;BME280;40500;51.084;16.958;2023-04-29T05:46:33;99847.84;;;12.10;100.00
54600;BME280;40500;51.084;16.958;2023-04-29T05:49:04;99845.39;;;12.21;100.00
54600;BME280;40500;51.084;16.958;2023-04-29T05:51:34;99837.02;;;12.31;100.00
54600;BME280;40500;51.084;16.958;2023-04-29T05:54:05;99842.80;;;12.42;100.00
54600;BME280;40500;51.084;16.958;2023-04-29T05:56:35;99844.14;;;12.49;100.00
54600;BME280;40500;51.084;16.958;2023-04-29T05:59:06;99848.05;;;12.53;100.00
54600;BME280;40500;51.084;16.958;2023-04-29T06:01:36;99849.73;;;12.55;100.00
54600;BME280;40500;51.084;16.958;2023-04-29T06:04:07;99853.90;;;12.57;100.00
54600;BME280;40500;51.084;16.958;2023-04-29T06:06:57;99853.61;;;12.55;100.00
54600;BME280;40500;51.084;16.958;2023-04-29T06:09:49;99855.05;;;12.54;100.00
54600;BME280;40500;51.084;16.958;2023-04-29T06:12:20;99860.55;;;12.52;100.00
54600;BME280;40500;51.084;16.958;2023-04-29T06:14:51;99857.73;;;12.53;100.00
54600;BME280;40500;51.084;16.958;2023-04-29T06:17:22;99858.24;;;12.53;100.00
54600;BME280;40500;51.084;16.958;2023-04-29T06:19:53;99855.55;;;12.55;100.00
54600;BME280;40500;51.084;16.958;2023-04-29T06:22:25;99858.78;;;12.58;100.00
54600;BME280;40500;51.084;16.958;2023-04-29T06:24:56;99862.11;;;12.58;100.00
54600;BME280;40500;51.084;16.958;2023-04-29T06:27:36;99867.86;;;12.60;100.00
54600;BME280;40500;51.084;16.958;2023-04-29T06:30:09;99868.37;;;12.60;100.00
54600;BME280;40500;51.084;16.958;2023-04-29T06:32:40;99871.45;;;12.63;100.00
54600;BME280;40500;51.084;16.958;2023-04-29T06:35:11;99869.66;;;12.64;100.00
54600;BME280;40500;51.084;16.958;2023-04-29T06:38:00;99872.44;;;12.65;100.00
54600;BME280;40500;51.084;16.958;2023-04-29T06:40:56;99872.27;;;12.64;100.00
54600;BME280;40500;51.084;16.958;2023-04-29T06:43:54;99871.73;;;12.65;100.00
54600;BME280;40500;51.084;16.958;2023-04-29T06:46:43;99876.27;;;12.65;100.00
54600;BME280;40500;51.084;16.958;2023-04-29T06:49:21;99875.59;;;12.65;100.00
54600;BME280;40500;51.084;16.958;2023-04-29T06:51:51;99874.38;;;12.64;100.00
54600;BME280;40500;51.084;16.958;2023-04-29T06:54:22;99877.89;;;12.64;100.00
54600;BME280;40500;51.084;16.958;2023-04-29T06:56:52;99878.10;;;12.63;100.00
54600;BME280;40500;51.084;16.958;2023-04-29T06:59:23;99878.55;;;12.66;100.00
54600;BME280;40500;51.084;16.958;2023-04-29T07:01:53;99876.64;;;12.65;100.00
54600;BME280;40500;51.084;16.958;2023-04-29T07:04:24;99879.16;;;12.63;100.00
54600;BME280;40500;51.084;16.958;2023-04-29T07:06:55;99879.23;;;12.61;100.00
54600;BME280;40500;51.084;16.958;2023-04-29T07:09:27;99879.80;;;12.60;100.00
54600;BME280;40500;51.084;16.958;2023-04-29T07:11:58;99876.28;;;12.60;100.00
54600;BME280;40500;51.084;16.958;2023-04-29T07:14:29;99878.38;;;12.60;100.00
54600;BME280;40500;51.084;16.958;2023-04-29T07:17:00;99877.86;;;12.60;100.00
54600;BME280;40500;51.084;16.958;2023-04-29T07:19:32;99874.29;;;12.62;100.00
54600;BME280;40500;51.084;16.958;2023-04-29T07:22:02;99875.39;;;12.66;100.00
54600;BME280;40500;51.084;16.958;2023-04-29T07:24:33;99871.22;;;12.70;100.00
54600;BME280;40500;51.084;16.958;2023-04-29T07:27:04;99870.95;;;12.73;100.00
54600;BME280;40500;51.084;16.958;2023-04-29T07:29:34;99877.16;;;12.76;100.00
54600;BME280;40500;51.084;16.958;2023-04-29T07:32:05;99878.17;;;12.77;100.00
54600;BME280;40500;51.084;16.958;2023-04-29T07:34:37;99874.75;;;12.80;100.00
54600;BME280;40500;51.084;16.958;2023-04-29T07:37:08;99876.07;;;12.82;100.00
54600;BME280;40500;51.084;16.958;2023-04-29T07:39:38;99876.25;;;12.87;100.00
54600;BME280;40500;51.084;16.958;2023-04-29T07:42:11;99876.02;;;12.94;100.00
54600;BME280;40500;51.084;16.958;2023-04-29T07:44:42;99875.08;;;13.01;100.00
54600;BME280;40500;51.084;16.958;2023-04-29T07:47:13;99878.48;;;13.10;100.00
54600;BME280;40500;51.084;16.958;2023-04-29T07:49:44;99880.78;;;13.14;100.00
54600;BME280;40500;51.084;16.958;2023-04-29T07:52:14;99879.64;;;13.17;100.00
54600;BME280;40500;51.084;16.958;2023-04-29T07:54:44;99879.39;;;13.19;100.00
54600;BME280;40500;51.084;16.958;2023-04-29T07:57:15;99880.27;;;13.24;100.00
54600;BME280;40500;51.084;16.958;2023-04-29T07:59:45;99883.27;;;13.29;100.00
54600;BME280;40500;51.084;16.958;2023-04-29T08:02:16;99880.14;;;13.33;100.00
54600;BME280;40500;51.084;16.958;2023-04-29T08:04:49;99880.98;;;13.34;100.00
54600;BME280;40500;51.084;16.958;2023-04-29T08:07:20;99881.70;;;13.34;100.00
54600;BME280;40500;51.084;16.958;2023-04-29T08:09:52;99881.63;;;13.31;100.00
54600;BME280;40500;51.084;16.958;2023-04-29T08:12:22;99882.19;;;13.30;100.00
54600;BME280;40500;51.084;16.958;2023-04-29T08:14:53;99881.28;;;13.31;100.00
54600;BME280;40500;51.084;16.958;2023-04-29T08:17:23;99882.05;;;13.29;100.00
54600;BME280;40500;51.084;16.958;2023-04-29T08:19:54;99886.80;;;13.28;100.00
54600;BME280;40500;51.084;16.958;2023-04-29T08:22:24;99887.23;;;13.26;100.00
54600;BME280;40500;51.084;16.958;2023-04-29T08:24:55;99893.16;;;13.28;100.00
54600;BME280;40500;51.084;16.958;2023-04-29T08:27:26;99892.75;;;13.30;100.00
54600;BME280;40500;51.084;16.958;2023-04-29T08:29:57;99892.14;;;13.32;100.00
54600;BME280;40500;51.084;16.958;2023-04-29T08:32:27;99899.77;;;13.35;100.00
54600;BME280;40500;51.084;16.958;2023-04-29T08:34:58;99904.75;;;13.39;100.00
54600;BME280;40500;51.084;16.958;2023-04-29T08:37:28;99905.70;;;13.42;100.00
54600;BME280;40500;51.084;16.958;2023-04-29T08:39:58;99905.15;;;13.42;100.00
54600;BME280;40500;51.084;16.958;2023-04-29T08:42:33;99908.13;;;13.42;100.00
54600;BME280;40500;51.084;16.958;2023-04-29T08:45:05;99910.80;;;13.42;100.00
54600;BME280;40500;51.084;16.958;2023-04-29T08:47:37;99910.40;;;13.43;100.00
54600;BME280;40500;51.084;16.958;2023-04-29T08:50:09;99910.45;;;13.48;100.00
54600;BME280;40500;51.084;16.958;2023-04-29T08:52:39;99912.10;;;13.50;100.00
54600;BME280;40500;51.084;16.958;2023-04-29T08:55:10;99915.45;;;13.54;100.00
54600;BME280;40500;51.084;16.958;2023-04-29T08:57:43;99916.09;;;13.61;100.00
54600;BME280;40500;51.084;16.958;2023-04-29T09:00:14;99918.25;;;13.70;100.00
54600;BME280;40500;51.084;16.958;2023-04-29T09:02:46;99924.46;;;13.77;100.00
54600;BME280;40500;51.084;16.958;2023-04-29T09:05:19;99925.52;;;13.87;100.00
54600;BME280;40500;51.084;16.958;2023-04-29T09:07:50;99928.13;;;13.97;100.00
54600;BME280;40500;51.084;16.958;2023-04-29T09:10:21;99931.45;;;14.12;100.00
54600;BME280;40500;51.084;16.958;2023-04-29T09:12:56;99936.10;;;14.29;100.00
54600;BME280;40500;51.084;16.958;2023-04-29T09:15:26;99928.79;;;14.40;100.00
54600;BME280;40500;51.084;16.958;2023-04-29T09:17:57;99929.72;;;14.57;100.00
54600;BME280;40500;51.084;16.958;2023-04-29T09:20:30;99932.05;;;14.74;100.00
54600;BME280;40500;51.084;16.958;2023-04-29T09:23:02;99926.42;;;14.82;100.00
54600;BME280;40500;51.084;16.958;2023-04-29T09:25:33;99928.31;;;14.88;100.00
54600;BME280;40500;51.084;16.958;2023-04-29T09:28:15;99930.02;;;14.94;100.00
54600;BME280;40500;51.084;16.958;2023-04-29T09:30:49;99926.15;;;14.93;100.00
54600;BME280;40500;51.084;16.958;2023-04-29T09:33:20;99925.80;;;14.97;100.00
54600;BME280;40500;51.084;16.958;2023-04-29T09:35:52;99919.77;;;15.02;100.00
54600;BME280;40500;51.084;16.958;2023-04-29T09:38:22;99920.52;;;15.10;100.00
54600;BME280;40500;51.084;16.958;2023-04-29T09:40:53;99921.27;;;15.13;100.00
54600;BME280;40500;51.084;16.958;2023-04-29T09:43:28;99926.17;;;15.22;100.00
54600;BME280;40500;51.084;16.958;2023-04-29T09:45:58;99925.52;;;15.29;100.00
54600;BME280;40500;51.084;16.958;2023-04-29T09:48:32;99927.35;;;15.32;100.00
54600;BME280;40500;51.084;16.958;2023-04-29T09:51:04;99924.20;;;15.35;100.00
54600;BME280;40500;51.084;16.958;2023-04-29T09:53:34;99928.80;;;15.39;100.00
54600;BME280;40500;51.084;16.958;2023-04-29T09:56:06;99929.66;;;15.44;100.00
54600;BME280;40500;51.084;16.958;2023-04-29T09:58:37;99927.89;;;15.48;100.00
54600;BME280;40500;51.084;16.958;2023-04-29T10:01:08;99929.44;;;15.57;100.00
54600;BME280;40500;51.084;16.958;2023-04-29T10:03:42;99933.45;;;15.70;100.00
54600;BME280;40500;51.084;16.958;2023-04-29T10:06:13;99935.28;;;15.89;100.00
54600;BME280;40500;51.084;16.958;2023-04-29T10:08:46;99937.48;;;16.06;100.00
54600;BME280;40500;51.084;16.958;2023-04-29T10:11:17;99937.62;;;16.19;100.00
54600;BME280;40500;51.084;16.958;2023-04-29T10:13:49;99937.20;;;16.39;100.00
54600;BME280;40500;51.084;16.958;2023-04-29T10:16:28;99932.16;;;16.67;100.00
54600;BME280;40500;51.084;16.958;2023-04-29T10:19:02;99932.19;;;16.99;100.00
54600;BME280;40500;51.084;16.958;2023-04-29T10:21:35;99929.88;;;17.21;100.00
54600;BME280;40500;51.084;16.958;2023-04-29T10:24:06;99932.92;;;17.34;100.00
54600;BME280;40500;51.084;16.958;2023-04-29T10:26:42;99931.00;;;17.51;100.00
54600;BME280;40500;51.084;16.958;2023-04-29T10:29:14;99926.89;;;17.51;100.00
54600;BME280;40500;51.084;16.958;2023-04-29T10:31:47;99922.67;;;17.51;100.00
54600;BME280;40500;51.084;16.958;2023-04-29T10:34:19;99920.15;;;17.51;100.00
54600;BME280;40500;51.084;16.958;2023-04-29T10:36:50;99912.50;;;17.55;100.00
54600;BME280;40500;51.084;16.958;2023-04-29T10:39:29;99909.67;;;17.55;100.00
54600;BME280;40500;51.084;16.958;2023-04-29T10:42:03;99903.95;;;17.63;100.00
54600;BME280;40500;51.084;16.958;2023-04-29T10:47:42;99899.59;;;17.78;100.00
54600;BME280;40500;51.084;16.958;2023-04-29T10:50:41;99898.05;;;17.85;100.00
54600;BME280;40500;51.084;16.958;2023-04-29T10:53:26;99900.66;;;17.92;100.00
54600;BME280;40500;51.084;16.958;2023-04-29T10:56:02;99899.81;;;17.92;100.00
54600;BME280;40500;51.084;16.958;2023-04-29T10:58:39;99897.18;;;18.01;100.00
54600;BME280;40500;51.084;16.958;2023-04-29T11:01:13;99903.13;;;18.09;100.00
54600;BME280;40500;51.084;16.958;2023-04-29T11:03:52;99898.71;;;17.93;100.00
54600;BME280;40500;51.084;16.958;2023-04-29T11:06:39;99895.20;;;17.85;100.00
54600;BME280;40500;51.084;16.958;2023-04-29T11:09:12;99893.45;;;17.85;100.00
54600;BME280;40500;51.084;16.958;2023-04-29T11:11:47;99896.81;;;17.88;100.00
54600;BME280;40500;51.084;16.958;2023-04-29T11:14:22;99893.02;;;17.96;100.00
54600;BME280;40500;51.084;16.958;2023-04-29T11:16:55;99891.09;;;18.08;100.00
54600;BME280;40500;51.084;16.958;2023-04-29T11:19:31;99892.06;;;18.26;100.00
54600;BME280;40500;51.084;16.958;2023-04-29T11:22:11;99893.54;;;18.38;100.00
54600;BME280;40500;51.084;16.958;2023-04-29T11:24:53;99894.88;;;18.46;100.00
54600;BME280;40500;51.084;16.958;2023-04-29T11:27:28;99892.96;;;18.51;100.00
54600;BME280;40500;51.084;16.958;2023-04-29T11:30:00;99888.79;;;18.62;100.00
54600;BME280;40500;51.084;16.958;2023-04-29T11:32:35;99887.66;;;18.63;100.00
54600;BME280;40500;51.084;16.958;2023-04-29T11:35:10;99886.87;;;18.62;100.00
54600;BME280;40500;51.084;16.958;2023-04-29T11:37:42;99888.38;;;18.72;100.00
54600;BME280;40500;51.084;16.958;2023-04-29T11:40:13;99891.45;;;18.90;100.00
54600;BME280;40500;51.084;16.958;2023-04-29T11:42:47;99892.50;;;19.09;100.00
54600;BME280;40500;51.084;16.958;2023-04-29T11:45:19;99894.53;;;19.13;100.00
54600;BME280;40500;51.084;16.958;2023-04-29T11:47:49;99894.31;;;19.20;100.00
54600;BME280;40500;51.084;16.958;2023-04-29T11:50:23;99899.52;;;19.19;100.00
54600;BME280;40500;51.084;16.958;2023-04-29T11:52:54;99902.00;;;18.98;100.00
54600;BME280;40500;51.084;16.958;2023-04-29T11:55:27;99898.73;;;18.77;100.00
54600;BME280;40500;51.084;16.958;2023-04-29T11:57:57;99899.02;;;18.63;100.00
54600;BME280;40500;51.084;16.958;2023-04-29T12:00:28;99900.55;;;18.48;100.00
54600;BME280;40500;51.084;16.958;2023-04-29T12:03:00;99901.44;;;18.30;100.00
54600;BME280;40500;51.084;16.958;2023-04-29T12:05:30;99907.11;;;18.04;100.00
54600;BME280;40500;51.084;16.958;2023-04-29T12:08:01;99906.98;;;17.83;100.00
54600;BME280;40500;51.084;16.958;2023-04-29T12:10:34;99910.02;;;17.59;100.00
54600;BME280;40500;51.084;16.958;2023-04-29T12:13:04;99907.66;;;17.36;100.00
54600;BME280;40500;51.084;16.958;2023-04-29T12:15:38;99908.48;;;17.20;100.00
54600;BME280;40500;51.084;16.958;2023-04-29T12:18:09;99907.88;;;17.15;100.00
54600;BME280;40500;51.084;16.958;2023-04-29T12:20:40;99904.14;;;17.12;100.00
54600;BME280;40500;51.084;16.958;2023-04-29T12:23:14;99902.58;;;17.14;100.00
54600;BME280;40500;51.084;16.958;2023-04-29T12:25:49;99896.75;;;17.32;100.00
54600;BME280;40500;51.084;16.958;2023-04-29T12:28:21;99896.59;;;17.78;100.00
54600;BME280;40500;51.084;16.958;2023-04-29T12:30:53;99894.55;;;18.23;100.00
54600;BME280;40500;51.084;16.958;2023-04-29T12:33:25;99894.20;;;19.57;100.00
54600;BME280;40500;51.084;16.958;2023-04-29T12:35:57;99887.79;;;21.27;100.00
54600;BME280;40500;51.084;16.958;2023-04-29T12:38:28;99881.23;;;24.36;100.00
54600;BME280;40500;51.084;16.958;2023-04-29T12:41:00;99874.45;;;27.62;100.00
54600;BME280;40500;51.084;16.958;2023-04-29T12:43:31;99864.20;;;30.25;100.00
54600;BME280;40500;51.084;16.958;2023-04-29T12:46:03;99864.27;;;30.26;100.00
54600;BME280;40500;51.084;16.958;2023-04-29T12:48:36;99867.05;;;28.74;100.00
54600;BME280;40500;51.084;16.958;2023-04-29T12:51:10;99870.70;;;27.65;100.00
54600;BME280;40500;51.084;16.958;2023-04-29T12:53:40;99863.91;;;29.29;100.00
54600;BME280;40500;51.084;16.958;2023-04-29T12:56:12;99859.84;;;32.05;100.00
54600;BME280;40500;51.084;16.958;2023-04-29T12:58:42;99854.40;;;32.49;100.00
54600;BME280;40500;51.084;16.958;2023-04-29T13:01:12;99855.02;;;32.31;100.00
54600;BME280;40500;51.084;16.958;2023-04-29T13:03:46;99851.27;;;33.61;99.96
54600;BME280;40500;51.084;16.958;2023-04-29T13:06:17;99842.63;;;35.06;90.79
54600;BME280;40500;51.084;16.958;2023-04-29T13:08:48;99847.09;;;34.75;82.97
54600;BME280;40500;51.084;16.958;2023-04-29T13:11:19;99847.71;;;34.76;81.48
54600;BME280;40500;51.084;16.958;2023-04-29T13:13:50;99846.17;;;35.96;83.52